Aeroporto :
LOGIN :

Iscrizione | Disclaimer

   EN    FR    IT 

 










Sommario :    VFR   VFR Marginale   IFR   IFR Intensivo   IFR Molto Intensivo
Visibilità : 
Base nubi : 
>= 8 km
>= 3000ft
5 / 8 km
1000 / 3000 ft
1500m / 5 km
500 / 1000 ft
800 / 1500m
200 / 500 ft
< 800m
< 200 ft
Simboli :   Temporali  Nebbia  Neve Forte  Precipitazioni Forti  Vento > 20 kt
SIGMETs :   Varie  Temporali  Ghiacco  Turbolenza  Onda orograficha  Ceneri Vulcaniche






- Altitudine del aeroporto : 915 ft
- Codice IATA : LUG


LSZA - Lugano

ULTIMO METAR :
  • 230850Z 19005KT 9999 VCSH FEW004 BKN070 15/12 Q1017

METARs OBSOLETI :
  • 230820Z VRB03KT 9999 VCSH FEW012 BKN070 15/12 Q1017
  • 230750Z AUTO VRB02KT 9999 FEW060CB OVC070 15/11 Q1016
  • 230720Z VRB01KT 9999 FEW010 BKN070 14/12 Q1016
  • 230650Z 02003KT 350V080 9999 VCSH FEW009 SCT012 BKN070 13/12 Q1016
  • 230620Z VRB03KT 9999 VCSH FEW009 SCT020 BKN070 13/12 Q1016 RERA
  • 230550Z VRB03KT 5000 RA FEW004 SCT020 BKN055 13/12 Q1016
  • 230520Z AUTO 18006KT 150V220 5000 +RA FEW008 SCT023 BKN026 13/12 Q1017
  • 230450Z AUTO VRB01KT 9999 -RA BKN044 13/12 Q1016

TAF TAF LSZA
Valido dal 23 a 09 ore il 23 a 18 ore UTC


230825Z 2309/2318 VRB02KT 9999 FEW010 BKN040
TEMPO 2309/2318 SHRA SCT040TCU
PROB30
TEMPO 2309/2318 18015G25KT 4000 TSRA SCT040CB
ATIS : +41 22 417 40 88



MetMap, La meteo Aeronautica in un colpo d'occhio ! - Copyright ORBIFLY Dicembre 2007 - Disclaimer

ORBIFLY MET'MAP TEAM :

Programmazione e sviluppo : Alexandra Zaïnal
Concezione : Baudouin d'Aumeries
Supporto tecnico e logistico : Manuel Goepfert
Aiuto : Marc-Olivier Méhu
Aiuto per la traduzione : Arnaldo La Scala




FONTI E CREDITI :

   NOAA